createdAt,value
2022-11-05T00:09:02.689Z,7.59
2022-11-05T00:29:02.674Z,7.11
2022-11-05T00:49:02.637Z,6.64
2022-11-05T01:09:02.606Z,6.28
2022-11-05T02:29:02.502Z,6.65
2022-11-05T02:49:02.483Z,6.36
2022-11-05T03:09:02.491Z,6.52
2022-11-05T03:29:02.447Z,6.43
2022-11-05T04:29:06.829Z,5.89
2022-11-05T04:49:02.340Z,5.84
2022-11-05T05:09:02.342Z,5.79
2022-11-05T06:09:02.256Z,5.62
2022-11-05T07:09:02.186Z,5.39
2022-11-05T07:29:02.166Z,5.56
2022-11-05T07:49:02.140Z,6.32
2022-11-05T08:09:02.125Z,7.09
2022-11-05T08:29:02.096Z,7.54
2022-11-05T09:09:02.063Z,8.49
2022-11-05T09:29:02.083Z,9.07
2022-11-05T09:49:01.990Z,9.64
2022-11-05T10:09:01.957Z,10.1
2022-11-05T10:29:01.951Z,10.43
2022-11-05T10:49:01.922Z,11.52
2022-11-05T11:09:01.881Z,11.82
2022-11-05T12:09:06.322Z,12.77
2022-11-05T12:29:19.047Z,12.52
2022-11-05T13:09:01.698Z,12.08
2022-11-05T13:29:01.666Z,11.76
2022-11-05T13:49:01.633Z,11.83
2022-11-05T14:09:01.603Z,11.71
2022-11-05T14:29:01.579Z,11.44
2022-11-05T15:09:01.520Z,11.04
2022-11-05T15:29:01.500Z,10.9
2022-11-05T16:09:01.418Z,10.47
2022-11-05T16:49:01.382Z,10.1
2022-11-05T17:09:01.344Z,10.03
2022-11-05T17:29:01.310Z,10.04
2022-11-05T17:49:01.290Z,10.07
2022-11-05T18:09:01.272Z,10.08
2022-11-05T18:29:01.233Z,10.19
2022-11-05T18:49:01.197Z,10.23
2022-11-05T19:49:01.121Z,10.16
2022-11-05T20:09:20.888Z,10.05
2022-11-05T20:29:01.069Z,10.04
2022-11-05T20:49:01.025Z,10.01
2022-11-05T21:09:01.006Z,9.91
2022-11-05T21:29:00.957Z,9.9
2022-11-05T21:49:00.947Z,9.72
2022-11-05T22:29:00.879Z,9.45
2022-11-05T22:49:00.877Z,9.29
2022-11-05T23:09:00.823Z,8.99
2022-11-05T23:29:00.798Z,8.86
2022-11-05T23:49:00.768Z,8.97
